createdAt,value
2019-01-25T00:00:29.306Z,142.97
2019-01-25T00:02:59.522Z,146.67
2019-01-25T00:05:29.728Z,141.07
2019-01-25T00:08:00.070Z,143.07
2019-01-25T00:10:30.317Z,148.17
2019-01-25T00:13:00.727Z,139.27
2019-01-25T00:15:31.024Z,129.40
2019-01-25T00:18:01.633Z,130.73
2019-01-25T00:20:32.645Z,130.77
2019-01-25T00:23:03.052Z,126.97
2019-01-25T00:25:33.232Z,130.97
2019-01-25T00:28:03.442Z,129.87
2019-01-25T00:30:33.731Z,125.23
2019-01-25T00:33:03.911Z,117.17
2019-01-25T00:35:34.463Z,119.73
2019-01-25T00:38:04.690Z,117.63
2019-01-25T00:40:34.956Z,120.43
2019-01-25T00:43:05.239Z,115.23
2019-01-25T00:45:36.253Z,119.93
2019-01-25T00:48:06.514Z,121.63
2019-01-25T00:50:36.845Z,107.30
2019-01-25T00:53:07.409Z,108.27
2019-01-25T00:55:38.544Z,105.27
2019-01-25T00:58:08.756Z,104.37
2019-01-25T01:00:39.159Z,108.20
2019-01-25T01:03:09.326Z,102.20
2019-01-25T01:05:39.597Z,111.67
2019-01-25T01:08:09.887Z,116.23
2019-01-25T01:10:40.063Z,110.40
2019-01-25T01:13:10.249Z,105.40
2019-01-25T01:15:40.401Z,99.47
2019-01-25T01:18:10.590Z,105.77
2019-01-25T01:20:40.756Z,100.33
2019-01-25T01:23:10.944Z,98.93
2019-01-25T01:25:41.120Z,98.77
2019-01-25T01:28:11.323Z,102.77
2019-01-25T01:30:41.482Z,104.63
2019-01-25T01:33:11.650Z,101.87
2019-01-25T01:35:41.833Z,98.73
2019-01-25T01:38:12.037Z,100.93
2019-01-25T01:40:42.217Z,107.17
2019-01-25T01:43:12.389Z,107.30
2019-01-25T01:45:42.567Z,105.57
2019-01-25T01:48:12.742Z,94.80
2019-01-25T01:50:42.923Z,108.53
2019-01-25T01:53:13.111Z,102.73
2019-01-25T01:55:43.280Z,107.97
2019-01-25T01:58:13.486Z,111.00
2019-01-25T02:00:43.643Z,103.13
2019-01-25T02:03:13.826Z,105.80
2019-01-25T02:05:43.973Z,103.73
2019-01-25T02:08:14.156Z,107.40
2019-01-25T02:10:44.312Z,103.50
2019-01-25T02:13:14.533Z,101.77
2019-01-25T02:15:44.761Z,102.10
2019-01-25T02:18:14.993Z,107.00
2019-01-25T02:20:45.237Z,101.83
2019-01-25T02:23:15.429Z,108.07
2019-01-25T02:25:45.579Z,109.30
2019-01-25T02:28:15.772Z,104.83
2019-01-25T02:30:46.026Z,117.87
2019-01-25T02:33:16.229Z,114.60
2019-01-25T02:35:46.370Z,123.07
2019-01-25T02:38:16.587Z,115.33
2019-01-25T02:40:46.745Z,116.80
2019-01-25T02:43:16.925Z,119.53
2019-01-25T02:45:47.118Z,124.60
2019-01-25T02:48:17.391Z,125.70
2019-01-25T02:50:47.545Z,114.97
2019-01-25T02:53:17.748Z,112.73
2019-01-25T02:55:47.893Z,127.53
2019-01-25T02:58:21.603Z,114.33
2019-01-25T03:00:51.820Z,131.50
2019-01-25T03:03:21.997Z,104.90
2019-01-25T03:05:52.161Z,113.53
2019-01-25T03:08:22.327Z,107.93
2019-01-25T03:10:52.474Z,110.00
2019-01-25T03:13:22.638Z,104.00
2019-01-25T03:15:52.761Z,118.87
2019-01-25T03:18:23.103Z,115.33
2019-01-25T03:20:53.237Z,110.77
2019-01-25T03:23:23.445Z,109.93
2019-01-25T03:25:53.570Z,98.07
2019-01-25T03:28:23.753Z,102.20
2019-01-25T03:30:53.913Z,120.37
2019-01-25T03:33:24.101Z,105.10
2019-01-25T03:35:54.245Z,129.50
2019-01-25T03:38:24.431Z,96.40
2019-01-25T03:40:55.362Z,126.33
2019-01-25T03:43:25.820Z,113.03
2019-01-25T03:45:56.439Z,143.00
2019-01-25T03:48:26.646Z,124.07
2019-01-25T03:50:56.784Z,116.73
2019-01-25T03:53:27.048Z,114.20
2019-01-25T03:55:57.197Z,123.43
2019-01-25T03:58:27.352Z,109.30
2019-01-25T04:00:58.672Z,105.57
2019-01-25T04:03:28.849Z,111.63
2019-01-25T04:05:59.025Z,121.63
2019-01-25T04:08:29.242Z,124.60
2019-01-25T04:11:03.843Z,123.10
2019-01-25T04:13:31.179Z,133.03
2019-01-25T04:16:01.328Z,114.00
2019-01-25T04:18:31.566Z,114.00
2019-01-25T04:21:01.721Z,110.57
2019-01-25T04:23:31.890Z,147.97
2019-01-25T04:26:02.042Z,111.20
2019-01-25T04:28:32.295Z,118.07
2019-01-25T04:31:02.423Z,106.73
2019-01-25T04:33:32.598Z,125.73
2019-01-25T04:36:02.774Z,108.97
2019-01-25T04:38:32.945Z,106.30
2019-01-25T04:41:03.124Z,117.07
2019-01-25T04:43:33.293Z,146.43
2019-01-25T04:46:03.559Z,110.60
2019-01-25T04:48:33.740Z,111.50
2019-01-25T04:51:08.720Z,122.20
2019-01-25T04:53:38.911Z,102.43
2019-01-25T04:56:09.170Z,102.17
2019-01-25T04:58:39.393Z,97.57
2019-01-25T05:01:10.849Z,95.97
2019-01-25T05:03:40.989Z,99.07
2019-01-25T05:06:14.213Z,99.40
2019-01-25T05:08:44.327Z,106.00
2019-01-25T05:11:19.990Z,109.97
2019-01-25T05:13:50.812Z,105.57
2019-01-25T05:16:20.890Z,119.90
2019-01-25T05:18:50.962Z,97.43
2019-01-25T05:21:25.366Z,112.53
2019-01-25T05:23:55.442Z,109.37
2019-01-25T05:26:25.519Z,110.50
2019-01-25T05:28:55.710Z,107.40
2019-01-25T05:31:28.443Z,117.87
2019-01-25T05:33:59.333Z,117.63
2019-01-25T05:36:29.451Z,112.10
2019-01-25T05:38:59.513Z,127.87
2019-01-25T05:41:29.628Z,120.33
2019-01-25T05:43:59.680Z,122.63
2019-01-25T05:46:29.732Z,118.60
2019-01-25T05:48:59.864Z,122.20
2019-01-25T05:51:33.738Z,106.73
2019-01-25T05:54:01.701Z,113.17
2019-01-25T05:56:31.735Z,112.57
2019-01-25T05:59:01.787Z,134.93
2019-01-25T06:01:31.911Z,126.83
2019-01-25T06:04:02.058Z,125.57
2019-01-25T06:06:32.260Z,118.30
2019-01-25T06:09:02.328Z,126.20
2019-01-25T06:11:35.863Z,135.53
2019-01-25T06:14:05.886Z,124.53
2019-01-25T06:16:37.410Z,132.27
2019-01-25T06:19:07.446Z,122.13
2019-01-25T06:21:37.496Z,129.77
2019-01-25T06:24:07.511Z,122.90
2019-01-25T06:26:39.363Z,122.77
2019-01-25T06:29:09.551Z,121.83
2019-01-25T06:31:39.644Z,115.00
2019-01-25T06:34:09.675Z,126.13
2019-01-25T06:36:39.699Z,123.00
2019-01-25T06:39:10.294Z,124.40
2019-01-25T06:41:44.184Z,119.80
2019-01-25T06:44:12.070Z,117.27
2019-01-25T06:46:42.237Z,113.33
2019-01-25T06:49:12.352Z,116.13
2019-01-25T06:51:42.382Z,120.03
2019-01-25T06:54:12.431Z,103.83
2019-01-25T06:56:42.483Z,108.50
2019-01-25T06:59:34.507Z,100.63
2019-01-25T07:02:08.557Z,124.03
2019-01-25T07:04:38.613Z,112.33
2019-01-25T07:07:17.471Z,120.90
2019-01-25T07:09:47.509Z,119.17
2019-01-25T07:12:17.528Z,115.63
2019-01-25T07:14:47.580Z,109.40
2019-01-25T07:17:19.255Z,106.47
2019-01-25T07:19:49.389Z,118.03
2019-01-25T07:22:19.416Z,120.40
2019-01-25T07:24:49.549Z,108.17
2019-01-25T07:27:19.713Z,108.77
2019-01-25T07:29:49.928Z,113.07
2019-01-25T07:32:20.101Z,122.07
2019-01-25T07:34:50.276Z,112.70
2019-01-25T07:37:20.356Z,106.83
2019-01-25T07:39:50.566Z,109.30
2019-01-25T07:42:20.962Z,122.60
2019-01-25T07:44:51.269Z,113.47
2019-01-25T07:47:21.319Z,112.33
2019-01-25T07:49:51.410Z,106.37
2019-01-25T07:52:21.467Z,100.93
2019-01-25T07:54:51.915Z,100.83
2019-01-25T07:57:22.011Z,97.00
2019-01-25T07:59:53.619Z,92.90
2019-01-25T08:02:23.715Z,97.03
2019-01-25T08:04:53.886Z,96.93
2019-01-25T08:07:23.960Z,102.93
2019-01-25T08:09:54.004Z,94.67
2019-01-25T08:12:24.116Z,92.50
2019-01-25T08:14:54.265Z,87.93
2019-01-25T08:17:24.493Z,78.97
2019-01-25T08:19:54.668Z,83.97
2019-01-25T08:22:24.705Z,79.67
2019-01-25T08:24:54.897Z,79.50
2019-01-25T08:27:24.954Z,78.17
2019-01-25T08:29:55.464Z,78.67
2019-01-25T08:32:25.494Z,72.93
2019-01-25T08:34:55.685Z,74.27
2019-01-25T08:37:25.713Z,79.60
2019-01-25T08:39:55.821Z,78.87
2019-01-25T08:42:25.851Z,83.37
2019-01-25T08:44:56.002Z,79.23
2019-01-25T08:47:26.099Z,81.17
2019-01-25T08:49:57.910Z,75.33
2019-01-25T08:52:27.943Z,78.27
2019-01-25T08:54:58.093Z,80.67
2019-01-25T08:57:28.218Z,73.27
2019-01-25T08:59:58.321Z,75.10
2019-01-25T09:02:28.436Z,70.70
2019-01-25T09:04:58.490Z,70.13
2019-01-25T09:07:28.572Z,66.67
2019-01-25T09:10:01.457Z,70.67
2019-01-25T09:12:31.799Z,66.23
2019-01-25T09:15:01.963Z,67.10
2019-01-25T09:17:32.182Z,69.00
2019-01-25T09:20:02.354Z,65.07
2019-01-25T09:22:32.379Z,65.43
2019-01-25T09:25:02.461Z,73.37
2019-01-25T09:27:32.478Z,68.27
2019-01-25T09:30:02.895Z,73.63
2019-01-25T09:32:33.043Z,69.00
2019-01-25T09:35:03.087Z,59.40
2019-01-25T09:37:33.277Z,52.00
2019-01-25T09:40:03.771Z,52.17
2019-01-25T09:42:33.815Z,52.50
2019-01-25T09:45:04.450Z,51.07
2019-01-25T09:47:36.129Z,52.47
2019-01-25T09:50:07.541Z,52.77
2019-01-25T09:52:37.546Z,52.43
2019-01-25T09:55:10.428Z,52.03
2019-01-25T09:57:40.787Z,52.43
2019-01-25T10:00:38.167Z,55.03
2019-01-25T10:03:08.357Z,48.93
2019-01-25T10:05:40.150Z,54.00
2019-01-25T10:08:10.184Z,49.97
2019-01-25T10:10:41.252Z,53.70
2019-01-25T10:13:11.267Z,55.43
2019-01-25T10:15:42.380Z,57.60
2019-01-25T10:18:12.500Z,55.70
2019-01-25T10:20:42.587Z,57.03
2019-01-25T10:23:12.681Z,54.13
2019-01-25T10:25:42.778Z,51.53
2019-01-25T10:28:12.944Z,54.07
2019-01-25T10:30:43.063Z,50.50
2019-01-25T10:33:13.186Z,53.27
2019-01-25T10:35:43.214Z,54.13
2019-01-25T10:38:13.256Z,56.73
2019-01-25T10:40:43.280Z,53.83
2019-01-25T10:43:13.290Z,59.03
2019-01-25T10:45:43.402Z,56.57
2019-01-25T10:48:13.580Z,56.30
2019-01-25T10:50:44.244Z,59.60
2019-01-25T10:53:14.287Z,59.73
2019-01-25T10:55:44.356Z,58.70
2019-01-25T10:58:14.405Z,59.33
2019-01-25T11:00:44.469Z,55.50
2019-01-25T11:03:14.949Z,60.80
2019-01-25T11:05:44.974Z,63.77
2019-01-25T11:08:15.083Z,65.73
2019-01-25T11:10:45.149Z,63.67
2019-01-25T11:13:15.188Z,63.83
2019-01-25T11:15:45.220Z,65.73
2019-01-25T11:18:15.257Z,68.30
2019-01-25T11:20:45.290Z,64.83
2019-01-25T11:23:15.319Z,64.27
2019-01-25T11:25:45.444Z,68.07
2019-01-25T11:28:15.450Z,58.40
2019-01-25T11:30:45.460Z,59.63
2019-01-25T11:33:15.655Z,60.37
2019-01-25T11:35:45.738Z,59.53
2019-01-25T11:38:16.027Z,60.70
2019-01-25T11:40:46.488Z,53.43
2019-01-25T11:43:16.504Z,55.77
2019-01-25T11:45:46.542Z,55.10
2019-01-25T11:48:16.686Z,52.83
2019-01-25T11:50:46.703Z,52.67
2019-01-25T11:53:16.766Z,51.13
2019-01-25T11:55:46.895Z,54.10
2019-01-25T11:58:17.033Z,52.30
2019-01-25T12:00:47.561Z,50.80
2019-01-25T12:03:17.595Z,52.30
2019-01-25T12:05:47.705Z,48.27
2019-01-25T12:08:20.477Z,46.53
2019-01-25T12:11:03.105Z,49.37
2019-01-25T12:13:45.365Z,50.90
2019-01-25T12:16:27.211Z,53.07
2019-01-25T12:19:09.213Z,60.87
2019-01-25T12:21:50.658Z,60.10
2019-01-25T12:24:32.722Z,59.40
2019-01-25T12:27:14.679Z,61.60
2019-01-25T12:29:57.012Z,63.47
2019-01-25T12:32:39.842Z,61.27
2019-01-25T12:35:21.832Z,60.47
2019-01-25T12:38:04.122Z,58.90
2019-01-25T12:40:34.754Z,60.50
2019-01-25T12:43:05.264Z,56.37
2019-01-25T12:45:35.302Z,56.23
2019-01-25T12:48:05.496Z,58.30
2019-01-25T12:50:38.820Z,62.43
2019-01-25T12:53:09.176Z,59.57
2019-01-25T12:55:39.297Z,61.43
2019-01-25T12:58:09.322Z,57.47
2019-01-25T13:00:41.590Z,63.77
2019-01-25T13:03:12.160Z,58.33
2019-01-25T13:05:43.302Z,61.00
2019-01-25T13:08:15.859Z,62.13
2019-01-25T13:10:47.133Z,62.60
2019-01-25T13:13:17.299Z,63.70
2019-01-25T13:15:47.486Z,62.73
2019-01-25T13:18:19.191Z,63.53
2019-01-25T13:20:49.274Z,59.40
2019-01-25T13:23:19.329Z,54.53
2019-01-25T13:25:49.410Z,54.40
2019-01-25T13:28:19.460Z,59.03
2019-01-25T13:30:49.744Z,62.60
2019-01-25T13:33:19.855Z,63.87
2019-01-25T13:35:50.001Z,68.83
2019-01-25T13:38:20.258Z,62.43
2019-01-25T13:40:50.838Z,60.93
2019-01-25T13:43:20.913Z,70.27
2019-01-25T13:45:50.962Z,64.80
2019-01-25T13:48:20.974Z,65.27
2019-01-25T13:50:51.351Z,66.03
2019-01-25T13:53:21.422Z,66.50
2019-01-25T13:55:51.591Z,63.90
2019-01-25T13:58:21.761Z,64.73
2019-01-25T14:00:51.988Z,65.47
2019-01-25T14:03:22.154Z,65.10
2019-01-25T14:05:52.317Z,68.17
2019-01-25T14:08:22.591Z,63.20
2019-01-25T14:10:52.815Z,65.00
2019-01-25T14:13:23.298Z,64.10
2019-01-25T14:15:53.359Z,62.57
2019-01-25T14:18:23.468Z,63.77
2019-01-25T14:20:53.621Z,67.60
2019-01-25T14:23:23.779Z,64.90
2019-01-25T14:25:53.956Z,66.90
2019-01-25T14:28:27.024Z,60.67
2019-01-25T14:30:57.074Z,59.20
2019-01-25T14:33:27.111Z,62.33
2019-01-25T14:35:57.139Z,64.20
2019-01-25T14:38:27.192Z,62.03
2019-01-25T14:40:57.237Z,64.33
2019-01-25T14:43:27.292Z,67.10
2019-01-25T14:45:57.416Z,66.70
2019-01-25T14:48:27.440Z,63.70
2019-01-25T14:50:57.584Z,59.27
2019-01-25T14:53:28.087Z,66.70
2019-01-25T14:55:58.246Z,59.03
2019-01-25T14:58:28.331Z,59.83
2019-01-25T15:00:58.372Z,57.67
2019-01-25T15:03:28.452Z,60.30
2019-01-25T15:05:58.547Z,59.90
2019-01-25T15:08:28.626Z,55.27
2019-01-25T15:10:58.709Z,56.37
2019-01-25T15:13:28.747Z,57.00
2019-01-25T15:15:58.908Z,56.50
2019-01-25T15:18:30.455Z,55.73
2019-01-25T15:21:00.564Z,57.23
2019-01-25T15:23:30.646Z,53.97
2019-01-25T15:26:00.789Z,55.13
2019-01-25T15:28:31.286Z,55.60
2019-01-25T15:31:01.331Z,51.60
2019-01-25T15:33:31.460Z,54.27
2019-01-25T15:36:01.670Z,55.13
2019-01-25T15:38:31.910Z,53.67
2019-01-25T15:41:04.055Z,55.57
2019-01-25T15:43:34.461Z,52.07
2019-01-25T15:46:04.617Z,56.00
2019-01-25T15:48:34.650Z,53.10
2019-01-25T15:51:04.835Z,57.33
2019-01-25T15:53:34.867Z,55.20
2019-01-25T15:56:05.415Z,52.73
2019-01-25T15:58:35.449Z,59.63
2019-01-25T16:01:05.774Z,54.50
2019-01-25T16:03:35.818Z,55.53
2019-01-25T16:06:06.074Z,50.33
2019-01-25T16:08:36.213Z,51.53
2019-01-25T16:11:06.340Z,53.53
2019-01-25T16:13:36.388Z,49.47
2019-01-25T16:16:06.514Z,51.10
2019-01-25T16:18:36.523Z,52.03
2019-01-25T16:21:06.617Z,53.07
2019-01-25T16:23:36.650Z,47.60
2019-01-25T16:26:06.871Z,46.57
2019-01-25T16:28:36.887Z,46.50
2019-01-25T16:31:07.090Z,47.13
2019-01-25T16:33:37.303Z,45.67
2019-01-25T16:36:07.349Z,44.40
2019-01-25T16:38:37.560Z,43.60
2019-01-25T16:41:07.633Z,44.43
2019-01-25T16:43:37.836Z,45.13
2019-01-25T16:46:07.929Z,43.90
2019-01-25T16:48:37.966Z,40.97
2019-01-25T16:51:08.118Z,41.93
2019-01-25T16:53:38.160Z,40.53
2019-01-25T16:56:08.234Z,41.87
2019-01-25T16:58:38.439Z,41.80
2019-01-25T17:01:08.571Z,46.03
2019-01-25T17:03:38.689Z,41.63
2019-01-25T17:06:08.831Z,44.07
2019-01-25T17:08:38.937Z,43.07
2019-01-25T17:11:09.077Z,41.33
2019-01-25T17:13:39.212Z,35.47
2019-01-25T17:16:09.480Z,36.90
2019-01-25T17:18:39.741Z,37.73
2019-01-25T17:21:09.815Z,39.87
2019-01-25T17:23:39.970Z,38.07
2019-01-25T17:26:10.054Z,36.87
2019-01-25T17:28:40.110Z,42.20
2019-01-25T17:31:10.190Z,34.50
2019-01-25T17:33:40.209Z,32.07
2019-01-25T17:36:10.355Z,36.37
2019-01-25T17:38:40.455Z,35.40
2019-01-25T17:41:10.627Z,35.23
2019-01-25T17:43:40.980Z,36.77
2019-01-25T17:46:11.028Z,33.43
2019-01-25T17:48:41.150Z,34.53
2019-01-25T17:51:11.353Z,34.03
2019-01-25T17:53:41.488Z,33.67
2019-01-25T17:56:11.756Z,31.97
2019-01-25T17:58:41.831Z,33.13
2019-01-25T18:01:12.040Z,31.47
2019-01-25T18:03:42.261Z,31.83
2019-01-25T18:06:12.543Z,30.33
2019-01-25T18:08:42.603Z,30.77
2019-01-25T18:11:12.811Z,30.40
2019-01-25T18:13:43.103Z,31.50
2019-01-25T18:16:13.263Z,30.93
2019-01-25T18:18:43.403Z,34.40
2019-01-25T18:21:16.294Z,35.60
2019-01-25T18:23:46.408Z,36.03
2019-01-25T18:26:21.821Z,35.37
2019-01-25T18:29:01.439Z,32.47
2019-01-25T18:31:32.459Z,35.57
2019-01-25T18:34:02.536Z,36.57
2019-01-25T18:36:32.582Z,38.63
2019-01-25T18:39:04.823Z,38.50
2019-01-25T18:41:35.432Z,37.70
2019-01-25T18:44:06.704Z,38.67
2019-01-25T18:46:36.744Z,39.53
2019-01-25T18:49:06.861Z,44.27
2019-01-25T18:51:36.995Z,39.53
2019-01-25T18:54:08.095Z,37.57
2019-01-25T18:56:38.309Z,42.57
2019-01-25T18:59:08.334Z,46.50
2019-01-25T19:01:38.457Z,42.93
2019-01-25T19:04:08.627Z,43.90
2019-01-25T19:06:38.753Z,47.50
2019-01-25T19:09:10.099Z,46.00
2019-01-25T19:11:40.206Z,45.00
2019-01-25T19:14:10.319Z,45.40
2019-01-25T19:16:40.447Z,44.87
2019-01-25T19:19:10.582Z,48.07
2019-01-25T19:21:40.817Z,42.77
2019-01-25T19:24:11.174Z,51.33
2019-01-25T19:26:41.249Z,42.50
2019-01-25T19:29:11.397Z,45.97
2019-01-25T19:31:41.671Z,42.17
2019-01-25T19:34:11.827Z,46.87
2019-01-25T19:36:43.587Z,45.57
2019-01-25T19:39:15.294Z,43.30
2019-01-25T19:41:45.547Z,50.50
2019-01-25T19:44:15.560Z,42.87
2019-01-25T19:46:45.755Z,45.60
2019-01-25T19:49:15.932Z,43.93
2019-01-25T19:51:46.116Z,38.73
2019-01-25T19:54:16.380Z,46.30
2019-01-25T19:56:47.221Z,41.83
2019-01-25T19:59:17.473Z,49.20
2019-01-25T20:01:47.568Z,44.60
2019-01-25T20:04:19.251Z,46.67
2019-01-25T20:06:49.296Z,42.33
2019-01-25T20:09:19.433Z,44.63
2019-01-25T20:11:49.722Z,41.80
2019-01-25T20:14:19.952Z,46.43
2019-01-25T20:16:50.656Z,39.60
2019-01-25T20:19:20.818Z,39.30
2019-01-25T20:21:50.955Z,40.07
2019-01-25T20:24:21.035Z,43.60
2019-01-25T20:26:51.181Z,46.33
2019-01-25T20:29:21.225Z,46.20
2019-01-25T20:31:51.283Z,40.20
2019-01-25T20:34:24.420Z,44.47
2019-01-25T20:36:54.689Z,45.23
2019-01-25T20:39:24.779Z,44.10
2019-01-25T20:41:54.977Z,53.73
2019-01-25T20:44:25.196Z,47.40
2019-01-25T20:46:55.416Z,47.47
2019-01-25T20:49:25.547Z,46.47
2019-01-25T20:51:55.950Z,51.47
2019-01-25T20:54:26.074Z,46.87
2019-01-25T20:56:56.183Z,48.83
2019-01-25T20:59:26.334Z,45.90
2019-01-25T21:01:56.567Z,53.70
2019-01-25T21:04:26.760Z,48.93
2019-01-25T21:06:56.939Z,50.97
2019-01-25T21:09:27.415Z,56.13
2019-01-25T21:11:57.569Z,54.00
2019-01-25T21:14:27.619Z,53.17
2019-01-25T21:16:57.806Z,49.40
2019-01-25T21:19:27.974Z,48.07
2019-01-25T21:21:58.142Z,56.40
2019-01-25T21:24:28.357Z,52.57
2019-01-25T21:26:58.630Z,55.87
2019-01-25T21:29:28.727Z,59.60
2019-01-25T21:31:58.792Z,68.47
2019-01-25T21:34:28.831Z,66.60
2019-01-25T21:36:58.952Z,62.37
2019-01-25T21:39:28.984Z,65.70
2019-01-25T21:41:59.152Z,61.83
2019-01-25T21:44:29.203Z,72.17
2019-01-25T21:46:59.278Z,68.73
2019-01-25T21:49:29.369Z,75.67
2019-01-25T21:51:59.649Z,65.97
2019-01-25T21:54:29.758Z,67.13
2019-01-25T21:57:00.019Z,69.47
2019-01-25T21:59:31.174Z,65.00
2019-01-25T22:02:01.449Z,63.47
2019-01-25T22:04:32.481Z,65.80
2019-01-25T22:07:02.667Z,70.87
2019-01-25T22:09:32.821Z,66.30
2019-01-25T22:12:03.099Z,70.77
2019-01-25T22:14:33.276Z,68.03
2019-01-25T22:17:03.751Z,71.20
2019-01-25T22:19:33.911Z,68.30
2019-01-25T22:22:04.604Z,72.63
2019-01-25T22:24:34.639Z,75.43
2019-01-25T22:27:04.850Z,66.70
2019-01-25T22:29:34.986Z,64.60
2019-01-25T22:32:05.160Z,70.50
2019-01-25T22:34:35.197Z,75.90
2019-01-25T22:37:05.234Z,68.67
2019-01-25T22:39:35.439Z,74.20
2019-01-25T22:42:05.559Z,72.43
2019-01-25T22:44:35.678Z,67.07
2019-01-25T22:47:05.750Z,73.27
2019-01-25T22:49:35.800Z,72.97
2019-01-25T22:52:05.933Z,75.83
2019-01-25T22:54:37.654Z,72.57
2019-01-25T22:57:07.703Z,79.13
2019-01-25T22:59:37.964Z,83.40
2019-01-25T23:02:08.261Z,79.00
2019-01-25T23:04:57.769Z,82.37
2019-01-25T23:07:29.624Z,74.53
2019-01-25T23:10:02.059Z,83.47
2019-01-25T23:12:32.303Z,84.90
2019-01-25T23:15:02.639Z,80.33
2019-01-25T23:17:32.857Z,79.90
2019-01-25T23:20:02.952Z,79.93
2019-01-25T23:22:33.071Z,82.13
2019-01-25T23:25:03.231Z,82.60
2019-01-25T23:27:33.684Z,79.63
2019-01-25T23:30:04.030Z,89.17
2019-01-25T23:32:35.975Z,83.97
2019-01-25T23:35:06.097Z,89.00
2019-01-25T23:37:36.229Z,85.77
2019-01-25T23:40:09.111Z,81.73
2019-01-25T23:42:39.327Z,77.40
2019-01-25T23:45:11.391Z,82.13
2019-01-25T23:47:41.434Z,83.87
2019-01-25T23:50:12.612Z,88.73
2019-01-25T23:52:42.770Z,80.90
2019-01-25T23:55:12.988Z,85.20
2019-01-25T23:57:43.155Z,70.23
